Time;durP1;ratioP1;P1;durP2;ratioP2;P2;SDS_P1;SDS_P2;PMS_P1;PMS_P2;Temp;Humidity;BMP_temperature;BMP_pressure;BME280_temperature;BME280_humidity;BME280_pressure;Samples;Min_cycle;Max_cycle;Signal;HPM_P1;HPM_P2
2022/07/03 00:02:29;;;;;;;5.75;2.85;;;17.50;99.90;;;;;;5013445;28;20050;-82
2022/07/03 00:05:15;;;;;;;7.95;3.03;;;17.40;99.90;;;;;;5014695;28;20050;-82
2022/07/03 00:08:04;;;;;;;8.63;2.80;;;17.40;99.90;;;;;;5012459;28;20122;-83
2022/07/03 00:10:50;;;;;;;7.30;3.00;;;17.40;99.90;;;;;;5013110;28;20413;-81
2022/07/03 00:13:36;;;;;;;4.32;2.40;;;17.30;99.90;;;;;;4998124;28;20550;-82
2022/07/03 00:16:22;;;;;;;6.72;3.20;;;17.20;99.90;;;;;;5013799;28;20489;-82
2022/07/03 00:19:08;;;;;;;7.40;3.25;;;17.20;99.90;;;;;;5010976;28;20541;-83
2022/07/03 00:22:04;;;;;;;7.32;2.58;;;17.20;99.90;;;;;;5010554;28;20509;-81
2022/07/03 00:24:52;;;;;;;7.97;3.10;;;17.10;99.90;;;;;;4995542;28;20060;-82
2022/07/03 00:27:41;;;;;;;10.07;3.70;;;17.00;99.90;;;;;;4995109;28;20054;-81
2022/07/03 00:30:27;;;;;;;7.78;3.45;;;17.00;99.90;;;;;;4996396;28;20050;-82
2022/07/03 00:33:14;;;;;;;6.78;3.35;;;16.90;99.90;;;;;;4998011;28;20064;-83
2022/07/03 00:36:01;;;;;;;7.53;3.72;;;16.90;99.90;;;;;;5012687;28;20045;-82
2022/07/03 00:38:49;;;;;;;6.97;3.25;;;16.90;99.90;;;;;;5011221;28;20149;-81
2022/07/03 00:41:35;;;;;;;7.30;4.32;;;16.80;99.90;;;;;;5012806;28;20041;-81
2022/07/03 00:44:22;;;;;;;8.40;4.18;;;16.70;99.90;;;;;;4997965;28;20116;-82
2022/07/03 00:47:08;;;;;;;7.57;3.92;;;16.70;99.90;;;;;;5011031;28;20106;-82
2022/07/03 00:49:59;;;;;;;7.07;3.78;;;16.70;99.90;;;;;;4994719;28;20489;-83
2022/07/03 00:52:48;;;;;;;5.13;3.28;;;16.60;99.90;;;;;;5011549;28;20049;-82
2022/07/03 00:55:36;;;;;;;7.15;3.15;;;16.60;99.90;;;;;;5012491;28;20052;-82
2022/07/03 00:58:22;;;;;;;6.13;3.30;;;16.60;99.90;;;;;;5011664;28;20103;-81
2022/07/03 01:01:11;;;;;;;8.35;4.05;;;16.50;99.90;;;;;;5011865;28;20092;-81
2022/07/03 01:04:39;;;;;;;8.05;4.63;;;16.40;99.90;;;;;;4995605;28;20462;-82
2022/07/03 01:07:46;;;;;;;8.02;3.75;;;16.30;99.90;;;;;;4980269;28;20133;-83
2022/07/03 01:11:06;;;;;;;5.63;3.88;;;16.30;99.90;;;;;;4994246;28;20050;-81
2022/07/03 01:14:18;;;;;;;10.52;3.97;;;16.30;99.90;;;;;;5010946;28;20056;-83
2022/07/03 01:17:11;;;;;;;6.85;3.55;;;16.30;99.90;;;;;;5010999;28;20073;-82
2022/07/03 01:20:06;;;;;;;6.03;3.50;;;16.30;99.90;;;;;;4995125;28;20549;-81
2022/07/03 01:22:57;;;;;;;6.97;3.67;;;16.20;99.90;;;;;;5013716;28;20050;-82
2022/07/03 01:25:48;;;;;;;7.95;2.72;;;16.20;99.90;;;;;;5012255;28;20065;-81
2022/07/03 01:28:38;;;;;;;5.97;3.05;;;16.20;99.90;;;;;;4994358;28;20050;-81
2022/07/03 01:31:25;;;;;;;5.53;3.67;;;16.10;99.90;;;;;;5010905;28;20058;-81
2022/07/03 01:34:16;;;;;;;7.03;3.22;;;16.10;99.90;;;;;;5010291;28;20375;-82
2022/07/03 01:37:04;;;;;;;7.68;3.45;;;16.10;99.90;;;;;;5010745;28;20050;-82
2022/07/03 01:39:53;;;;;;;7.53;4.10;;;16.00;99.90;;;;;;5010675;28;20050;-82
2022/07/03 01:42:42;;;;;;;7.18;3.63;;;16.00;99.90;;;;;;4995653;28;20060;-82
2022/07/03 01:45:30;;;;;;;6.97;3.63;;;16.00;99.90;;;;;;5010644;28;20486;-83
2022/07/03 01:48:16;;;;;;;7.10;3.35;;;15.90;99.90;;;;;;5010881;28;20045;-82
2022/07/03 01:51:03;;;;;;;7.88;3.38;;;15.90;99.90;;;;;;5010206;28;20525;-81
2022/07/03 01:53:51;;;;;;;4.75;2.55;;;15.80;99.90;;;;;;5011070;28;20414;-82
2022/07/03 01:56:37;;;;;;;5.88;3.47;;;15.80;99.90;;;;;;5010898;28;20141;-82
2022/07/03 01:59:23;;;;;;;5.63;3.30;;;15.70;99.90;;;;;;5015227;28;20050;-82
2022/07/03 02:02:59;;;;;;;6.57;3.08;;;15.70;99.90;;;;;;5015810;28;20077;-82
2022/07/03 02:05:46;;;;;;;10.60;3.42;;;15.70;99.90;;;;;;5015746;28;20046;-82
2022/07/03 02:08:55;;;;;;;7.47;3.80;;;15.60;99.90;;;;;;5014495;28;20050;-81
2022/07/03 02:11:45;;;;;;;6.82;3.30;;;15.60;99.90;;;;;;5016523;28;20061;-82
2022/07/03 02:14:35;;;;;;;5.22;3.22;;;15.60;99.90;;;;;;4986655;28;20053;-83
2022/07/03 02:17:21;;;;;;;7.22;3.78;;;15.60;99.90;;;;;;5016104;28;20042;-81
2022/07/03 02:20:09;;;;;;;8.30;3.20;;;15.50;99.90;;;;;;5015990;28;20042;-82
2022/07/03 02:22:59;;;;;;;6.43;3.08;;;15.50;99.90;;;;;;5014088;28;20145;-80
2022/07/03 02:33:55;;;;;;;6.07;3.25;;;15.50;99.90;;;;;;5014293;28;20057;-82
2022/07/03 02:36:50;;;;;;;5.40;2.58;;;15.50;99.90;;;;;;5013508;28;20057;-81
2022/07/03 02:39:48;;;;;;;11.43;3.63;;;15.50;99.90;;;;;;5014547;28;20053;-83
2022/07/03 02:43:08;;;;;;;5.18;3.35;;;15.50;99.90;;;;;;5012961;28;20044;-81
2022/07/03 02:49:20;;;;;;;7.03;3.47;;;15.60;99.90;;;;;;5014428;28;20088;-82
2022/07/03 02:52:15;;;;;;;4.97;2.95;;;15.60;99.90;;;;;;5013191;28;20084;-83
2022/07/03 02:55:10;;;;;;;6.57;3.55;;;15.70;99.90;;;;;;4995974;28;20174;-83
2022/07/03 02:58:12;;;;;;;;;;;15.80;99.90;;;;;;4982834;28;20050;-83
2022/07/03 03:01:34;;;;;;;6.35;3.20;;;15.80;99.90;;;;;;5014146;28;20337;-81
2022/07/03 03:04:34;;;;;;;7.72;2.90;;;15.80;99.90;;;;;;4937968;29;20443;-81
2022/07/03 03:07:25;;;;;;;5.68;2.42;;;15.80;99.90;;;;;;5018596;28;20053;-82
2022/07/03 03:10:14;;;;;;;4.25;2.70;;;15.80;99.90;;;;;;5014092;28;20145;-81
2022/07/03 03:13:12;;;;;;;7.10;3.20;;;15.80;99.90;;;;;;4996187;28;20140;-82
2022/07/03 03:16:09;;;;;;;9.27;3.67;;;15.80;99.90;;;;;;4996590;28;20046;-81
2022/07/03 03:18:56;;;;;;;8.50;3.88;;;15.70;99.90;;;;;;5013312;28;20042;-82
2022/07/03 03:22:09;;;;;;;5.47;3.55;;;15.70;99.90;;;;;;4995411;28;20510;-82
2022/07/03 03:24:56;;;;;;;6.70;3.60;;;15.70;99.90;;;;;;5015036;28;20512;-81
2022/07/03 03:27:42;;;;;;;5.50;2.95;;;15.60;99.90;;;;;;5015331;28;20100;-82
2022/07/03 03:30:29;;;;;;;5.53;2.85;;;15.70;99.90;;;;;;4999579;28;20524;-81
2022/07/03 03:33:16;;;;;;;5.20;3.38;;;15.70;99.90;;;;;;5012890;28;20041;-83
2022/07/03 03:36:04;;;;;;;7.78;3.75;;;15.70;99.90;;;;;;4997081;28;20046;-81
2022/07/03 03:38:51;;;;;;;7.70;4.00;;;15.70;99.90;;;;;;5012872;28;20052;-82
2022/07/03 03:41:38;;;;;;;4.57;2.83;;;15.70;99.90;;;;;;5013396;28;20410;-82
2022/07/03 03:44:24;;;;;;;5.72;3.50;;;15.70;99.90;;;;;;5013517;28;20056;-81
2022/07/03 03:47:11;;;;;;;9.15;4.10;;;15.80;99.90;;;;;;5013124;28;20056;-81
2022/07/03 03:49:57;;;;;;;7.90;3.78;;;15.80;99.90;;;;;;4994941;28;20056;-82
2022/07/03 03:52:43;;;;;;;6.03;2.88;;;15.70;99.90;;;;;;5012191;28;20065;-82
2022/07/03 03:55:29;;;;;;;6.80;3.03;;;15.70;99.90;;;;;;4998821;28;20046;-82
2022/07/03 03:58:15;;;;;;;5.75;2.97;;;15.70;99.90;;;;;;5013520;28;20054;-82
2022/07/03 04:01:03;;;;;;;7.63;3.70;;;15.80;99.90;;;;;;4982223;28;20052;-82
2022/07/03 04:03:49;;;;;;;7.32;3.42;;;15.90;99.90;;;;;;4995911;28;20140;-82
2022/07/03 04:06:35;;;;;;;4.93;3.25;;;16.00;99.90;;;;;;5013335;28;20046;-81
2022/07/03 04:09:21;;;;;;;7.15;3.55;;;16.10;99.90;;;;;;4994131;28;20058;-82
2022/07/03 04:12:07;;;;;;;7.43;4.68;;;16.20;99.90;;;;;;5012002;28;20384;-82
2022/07/03 04:14:53;;;;;;;6.75;4.07;;;16.20;99.90;;;;;;4996705;28;20088;-82
2022/07/03 04:17:40;;;;;;;6.72;3.85;;;16.30;99.90;;;;;;4996903;28;20133;-82
2022/07/03 04:20:26;;;;;;;7.90;3.92;;;16.40;99.90;;;;;;4981717;28;20069;-82
2022/07/03 04:23:12;;;;;;;6.03;4.10;;;16.40;99.90;;;;;;5013702;28;20096;-83
2022/07/03 04:26:07;;;;;;;8.45;3.85;;;16.50;99.90;;;;;;4987577;28;20057;-82
2022/07/03 04:28:53;;;;;;;6.70;4.30;;;16.50;99.90;;;;;;5013755;28;20054;-82
2022/07/03 04:31:40;;;;;;;4.53;2.60;;;16.60;99.90;;;;;;4982341;28;20057;-83
2022/07/03 04:34:26;;;;;;;3.55;1.60;;;16.70;99.90;;;;;;5013009;28;20045;-83
2022/07/03 04:37:12;;;;;;;4.20;2.05;;;16.70;99.90;;;;;;5013149;28;20045;-83
2022/07/03 04:39:58;;;;;;;5.43;2.97;;;16.80;99.90;;;;;;5012081;28;20058;-84
2022/07/03 04:42:44;;;;;;;7.45;3.53;;;16.90;99.90;;;;;;4994607;28;20140;-83
2022/07/03 04:45:30;;;;;;;8.65;3.70;;;16.90;99.90;;;;;;4998553;28;20087;-81
2022/07/03 04:48:17;;;;;;;6.82;3.10;;;17.00;99.90;;;;;;5013929;28;20050;-83
2022/07/03 04:51:03;;;;;;;6.72;2.38;;;17.00;99.90;;;;;;4994655;28;20088;-84
2022/07/03 04:53:49;;;;;;;6.53;2.63;;;17.10;99.90;;;;;;5011522;28;20377;-83
2022/07/03 04:56:35;;;;;;;4.63;2.00;;;17.10;99.90;;;;;;4981730;28;20453;-82
2022/07/03 04:59:21;;;;;;;4.78;1.80;;;17.20;99.90;;;;;;5012233;28;20441;-83
2022/07/03 05:02:07;;;;;;;6.15;2.05;;;17.20;99.90;;;;;;5010806;28;20101;-82
2022/07/03 05:04:53;;;;;;;4.72;2.55;;;17.20;99.90;;;;;;5012505;28;20128;-81
2022/07/03 05:07:40;;;;;;;4.55;2.50;;;17.20;99.90;;;;;;4997245;28;20116;-82
2022/07/03 05:10:26;;;;;;;7.68;3.08;;;17.20;99.90;;;;;;4995235;28;20501;-83
2022/07/03 05:13:13;;;;;;;5.57;2.92;;;17.30;99.90;;;;;;4995001;28;20037;-82
2022/07/03 05:15:59;;;;;;;3.97;2.40;;;17.30;99.90;;;;;;5012750;28;20139;-83
2022/07/03 05:18:45;;;;;;;5.30;2.28;;;17.30;99.90;;;;;;5012227;28;20050;-82
2022/07/03 05:21:31;;;;;;;4.88;2.45;;;17.40;99.90;;;;;;4993589;28;20050;-82
2022/07/03 05:24:18;;;;;;;5.50;2.38;;;17.40;99.90;;;;;;4997129;28;20077;-82
2022/07/03 05:27:04;;;;;;;7.30;2.97;;;17.40;99.90;;;;;;5013803;28;20053;-82
2022/07/03 05:29:50;;;;;;;5.50;3.28;;;17.40;99.90;;;;;;5010968;28;20065;-82
2022/07/03 05:32:36;;;;;;;6.25;2.55;;;17.50;99.90;;;;;;5010577;28;20053;-83
2022/07/03 05:35:23;;;;;;;7.25;2.50;;;17.60;99.90;;;;;;5010990;28;20124;-83
2022/07/03 05:38:09;;;;;;;4.43;2.70;;;17.60;99.90;;;;;;5010448;28;20116;-82
2022/07/03 05:40:57;;;;;;;6.95;2.97;;;17.60;99.90;;;;;;5011570;28;20049;-82
2022/07/03 05:43:44;;;;;;;4.90;2.80;;;17.60;99.90;;;;;;4995392;28;20156;-83
2022/07/03 05:46:30;;;;;;;7.65;2.78;;;17.80;99.90;;;;;;4993384;28;20057;-82
2022/07/03 05:49:16;;;;;;;6.10;2.95;;;18.00;99.90;;;;;;4996549;28;20056;-82
2022/07/03 05:52:02;;;;;;;6.50;2.33;;;18.00;99.90;;;;;;5011441;28;20057;-82
2022/07/03 05:54:48;;;;;;;4.72;2.53;;;18.10;99.90;;;;;;4992223;28;20050;-82
2022/07/03 05:57:35;;;;;;;6.47;2.40;;;18.10;99.90;;;;;;5012571;28;20056;-82
2022/07/03 06:00:21;;;;;;;5.25;2.50;;;18.00;99.90;;;;;;4997500;28;20050;-82
2022/07/03 06:03:08;;;;;;;6.20;2.92;;;18.00;99.90;;;;;;5009663;28;20061;-82
2022/07/03 06:05:54;;;;;;;6.45;2.85;;;17.90;99.90;;;;;;4993684;28;20445;-82
2022/07/03 06:08:40;;;;;;;7.05;2.55;;;17.90;99.90;;;;;;5010561;28;20041;-82
2022/07/03 06:11:26;;;;;;;6.03;2.78;;;18.00;99.90;;;;;;5010604;28;20050;-83
2022/07/03 06:14:12;;;;;;;6.78;2.90;;;17.90;99.90;;;;;;4993792;28;20466;-80
2022/07/03 06:16:59;;;;;;;4.63;2.30;;;17.90;99.90;;;;;;5011486;28;20100;-80
2022/07/03 06:19:45;;;;;;;4.80;2.40;;;17.90;99.90;;;;;;4994124;28;20084;-81
2022/07/03 06:22:31;;;;;;;3.72;2.17;;;17.80;99.90;;;;;;5012491;28;20060;-81
2022/07/03 06:25:17;;;;;;;6.38;2.38;;;17.80;99.90;;;;;;4993967;28;20049;-83
2022/07/03 06:28:04;;;;;;;6.07;2.92;;;17.90;99.90;;;;;;5011625;28;20573;-82
2022/07/03 06:30:50;;;;;;;6.30;2.42;;;18.00;99.90;;;;;;5009685;28;20135;-83
2022/07/03 06:33:36;;;;;;;6.30;2.40;;;18.30;99.90;;;;;;5010394;28;20061;-83
2022/07/03 06:36:23;;;;;;;6.25;2.75;;;18.50;99.90;;;;;;5010309;28;20108;-82
2022/07/03 06:39:09;;;;;;;6.45;2.38;;;18.70;99.90;;;;;;5009915;28;20046;-82
2022/07/03 06:41:55;;;;;;;7.40;2.20;;;18.90;99.90;;;;;;5009084;28;20065;-82
2022/07/03 06:44:41;;;;;;;4.65;2.20;;;19.10;99.90;;;;;;5017233;28;20049;-81
2022/07/03 06:47:27;;;;;;;4.85;2.13;;;19.20;99.90;;;;;;5014687;28;20042;-84
2022/07/03 06:50:14;;;;;;;6.20;2.17;;;19.40;99.90;;;;;;4996748;28;20053;-84
2022/07/03 06:53:00;;;;;;;6.45;1.90;;;19.60;99.90;;;;;;5013121;28;20068;-85
2022/07/03 06:55:46;;;;;;;5.22;1.75;;;19.70;99.90;;;;;;5015583;28;20050;-83
2022/07/03 06:58:33;;;;;;;4.53;2.00;;;19.80;99.90;;;;;;5015852;28;20046;-82
2022/07/03 07:01:19;;;;;;;6.57;1.95;;;20.00;99.90;;;;;;5013513;28;20049;-83
2022/07/03 07:04:05;;;;;;;7.20;1.85;;;20.10;99.90;;;;;;4996698;28;20049;-82
2022/07/03 07:06:51;;;;;;;4.75;1.70;;;20.20;99.90;;;;;;5014426;28;20049;-84
2022/07/03 07:09:37;;;;;;;5.60;1.95;;;20.30;99.90;;;;;;5014119;28;20061;-83
2022/07/03 07:12:25;;;;;;;3.40;1.17;;;20.50;99.90;;;;;;5013746;28;20666;-81
2022/07/03 07:15:11;;;;;;;3.60;1.50;;;20.60;99.90;;;;;;4996712;28;20445;-81
2022/07/03 07:17:57;;;;;;;4.47;1.00;;;20.60;99.90;;;;;;5014139;28;20147;-83
2022/07/03 07:20:43;;;;;;;7.60;1.58;;;20.80;99.90;;;;;;5001392;28;20046;-81
2022/07/03 07:23:30;;;;;;;6.05;1.50;;;20.90;99.90;;;;;;5015563;28;20054;-81
2022/07/03 07:26:18;;;;;;;4.05;1.30;;;21.10;99.90;;;;;;5014169;28;20041;-85
2022/07/03 07:29:04;;;;;;;2.67;0.98;;;21.30;99.90;;;;;;5014407;28;20050;-83
2022/07/03 07:31:51;;;;;;;4.35;0.77;;;21.30;99.90;;;;;;5014664;28;20140;-84
2022/07/03 07:34:37;;;;;;;4.28;0.98;;;21.40;99.90;;;;;;4999561;28;20046;-84
2022/07/03 07:37:23;;;;;;;5.10;1.23;;;21.50;99.90;;;;;;4995364;28;20046;-83
2022/07/03 07:40:09;;;;;;;2.10;0.88;;;21.60;99.90;;;;;;5013598;28;20054;-84
2022/07/03 07:42:56;;;;;;;3.47;1.08;;;21.70;99.90;;;;;;5012933;28;20046;-83
2022/07/03 07:45:43;;;;;;;3.65;1.05;;;21.70;99.90;;;;;;5003171;28;20062;-81
2022/07/03 07:48:29;;;;;;;2.38;1.10;;;21.90;99.90;;;;;;5020052;28;20046;-86
2022/07/03 07:51:16;;;;;;;4.13;1.42;;;21.90;99.90;;;;;;4982344;28;20054;-84
2022/07/03 07:54:02;;;;;;;5.18;1.70;;;21.90;99.90;;;;;;5013741;28;20456;-84
2022/07/03 07:56:48;;;;;;;3.78;1.10;;;21.70;99.90;;;;;;5013230;28;20042;-85
2022/07/03 07:59:34;;;;;;;5.72;1.10;;;21.90;99.90;;;;;;5013736;28;20052;-85
2022/07/03 08:05:35;;;;;;;4.45;1.10;;;22.30;99.90;;;;;;5013675;28;20050;-84
2022/07/03 08:08:22;;;;;;;5.07;1.40;;;22.40;99.90;;;;;;4995079;28;20498;-83
2022/07/03 08:11:09;;;;;;;3.55;1.00;;;22.50;99.90;;;;;;4995492;28;20058;-82
2022/07/03 08:13:55;;;;;;;1.85;0.70;;;22.60;99.90;;;;;;5012744;28;20409;-81
2022/07/03 08:16:42;;;;;;;3.05;0.77;;;23.00;99.90;;;;;;5012552;28;20085;-82
2022/07/03 08:19:28;;;;;;;5.57;1.35;;;23.00;99.90;;;;;;4968593;28;20099;-82
2022/07/03 08:22:14;;;;;;;3.25;0.88;;;23.00;99.40;;;;;;4998830;28;20510;-83
2022/07/03 08:25:00;;;;;;;4.10;1.23;;;23.10;99.70;;;;;;5013968;28;20132;-83
2022/07/03 08:27:47;;;;;;;6.47;1.35;;;23.30;99.70;;;;;;4997466;28;20050;-83
2022/07/03 08:30:33;;;;;;;4.32;1.10;;;23.30;99.70;;;;;;5002001;28;20050;-83
2022/07/03 08:33:19;;;;;;;4.57;0.90;;;23.20;98.90;;;;;;4994912;28;20060;-81
2022/07/03 08:36:06;;;;;;;3.25;0.60;;;23.30;99.20;;;;;;5011086;28;20054;-81
2022/07/03 08:38:52;;;;;;;4.60;1.08;;;23.50;99.40;;;;;;5011757;28;20046;-81
2022/07/03 08:41:40;;;;;;;2.75;0.50;;;23.60;98.60;;;;;;4996727;28;20054;-83
2022/07/03 08:44:27;;;;;;;3.65;0.50;;;23.70;97.30;;;;;;5011624;28;20406;-83
2022/07/03 08:47:17;;;;;;;1.83;0.60;;;23.80;96.90;;;;;;5012162;28;20046;-82
2022/07/03 08:50:04;;;;;;;4.10;0.63;;;23.80;96.10;;;;;;5011521;28;20567;-80
2022/07/03 08:52:51;;;;;;;4.03;0.73;;;24.10;96.10;;;;;;5011048;28;20062;-83
2022/07/03 08:55:37;;;;;;;5.38;0.90;;;24.10;96.10;;;;;;5012561;28;20038;-85
2022/07/03 08:58:24;;;;;;;5.85;0.60;;;24.40;96.50;;;;;;5012221;28;20056;-81
2022/07/03 09:01:15;;;;;;;4.05;1.30;;;24.40;96.00;;;;;;4997388;28;20050;-81
2022/07/03 09:04:03;;;;;;;4.20;0.88;;;24.90;95.70;;;;;;4994621;28;20081;-82
2022/07/03 09:06:51;;;;;;;6.65;1.73;;;25.00;96.00;;;;;;5010320;28;20146;-81
2022/07/03 09:09:39;;;;;;;6.28;1.23;;;25.10;97.50;;;;;;5013183;28;20547;-81
2022/07/03 09:12:25;;;;;;;7.35;1.30;;;25.30;98.50;;;;;;5013614;28;20049;-83
2022/07/03 09:15:12;;;;;;;5.90;1.48;;;25.40;97.90;;;;;;4980684;28;20538;-82
2022/07/03 09:18:03;;;;;;;6.25;1.58;;;25.30;98.40;;;;;;4980579;28;20105;-85
2022/07/03 09:21:02;;;;;;;5.80;1.40;;;25.60;99.50;;;;;;5011986;28;20053;-80
2022/07/03 09:23:48;;;;;;;6.68;1.40;;;25.80;99.00;;;;;;5011820;28;20777;-81
2022/07/03 09:26:34;;;;;;;7.55;1.35;;;25.60;98.80;;;;;;5010571;28;20141;-81
2022/07/03 09:29:20;;;;;;;7.93;1.30;;;25.20;98.80;;;;;;5010984;28;20042;-82
2022/07/03 09:32:07;;;;;;;6.47;1.55;;;24.90;99.20;;;;;;5010010;28;20545;-82
2022/07/03 09:35:22;;;;;;;11.57;1.60;;;24.40;99.80;;;;;;5012427;28;20521;-82
2022/07/03 09:38:09;;;;;;;5.20;1.13;;;24.70;99.90;;;;;;4994298;28;20061;-84
2022/07/03 09:40:57;;;;;;;7.93;1.58;;;25.10;99.60;;;;;;4994537;28;20081;-83
2022/07/03 09:43:44;;;;;;;7.82;1.00;;;24.80;99.50;;;;;;4994247;28;20050;-83
2022/07/03 09:46:30;;;;;;;7.30;1.67;;;25.20;99.60;;;;;;5013069;28;20405;-83
2022/07/03 09:49:16;;;;;;;5.95;1.42;;;25.00;99.50;;;;;;4996311;28;20131;-81
2022/07/03 09:52:02;;;;;;;7.53;1.70;;;25.00;99.50;;;;;;4990248;28;20133;-81
2022/07/03 09:54:48;;;;;;;10.90;1.65;;;25.30;99.10;;;;;;4990679;28;20054;-82
2022/07/03 09:57:36;;;;;;;4.63;1.25;;;25.00;99.00;;;;;;4977064;28;20054;-81
2022/07/03 10:00:25;;;;;;;7.18;1.70;;;25.20;98.90;;;;;;4977206;28;20482;-81
2022/07/03 10:03:12;;;;;;;5.40;1.45;;;25.10;98.70;;;;;;4991813;28;20050;-81
2022/07/03 10:06:03;;;;;;;7.05;1.35;;;24.70;98.80;;;;;;4990914;28;20046;-81
2022/07/03 10:08:50;;;;;;;8.20;1.73;;;24.60;99.20;;;;;;4990162;28;20050;-81
2022/07/03 10:11:36;;;;;;;7.60;1.45;;;24.70;99.50;;;;;;4991730;28;20058;-81
2022/07/03 10:14:25;;;;;;;9.20;1.48;;;24.70;99.70;;;;;;4992287;28;20050;-82
2022/07/03 10:17:12;;;;;;;9.05;2.20;;;24.90;99.90;;;;;;4990678;28;20089;-82
2022/07/03 10:19:58;;;;;;;11.23;1.85;;;25.40;99.50;;;;;;4981354;28;20096;-81
2022/07/03 10:22:47;;;;;;;7.90;1.25;;;25.70;98.60;;;;;;4996232;28;20046;-83
2022/07/03 10:25:33;;;;;;;6.63;1.83;;;25.50;98.40;;;;;;4994036;28;20090;-82
2022/07/03 10:28:20;;;;;;;4.93;1.25;;;25.50;98.10;;;;;;4995858;28;20533;-82
2022/07/03 10:31:08;;;;;;;8.30;1.48;;;25.30;98.20;;;;;;4995380;28;20046;-83
2022/07/03 10:33:56;;;;;;;9.02;1.38;;;24.70;98.80;;;;;;4994995;28;20051;-82
2022/07/03 10:36:43;;;;;;;5.70;1.42;;;24.40;99.10;;;;;;4995124;28;20058;-82
2022/07/03 10:44:45;;;;;;;10.40;1.48;;;24.10;99.80;;;;;;4993266;28;20054;-81
2022/07/03 10:46:24;;;;;;;8.48;1.98;;;23.70;99.90;;;;;;4995180;28;20046;-82
2022/07/03 10:49:11;;;;;;;6.88;1.48;;;23.50;99.90;;;;;;4997084;28;20047;-82
2022/07/03 10:52:00;;;;;;;5.80;1.10;;;23.40;99.90;;;;;;5003309;28;20521;-83
2022/07/03 10:54:51;;;;;;;5.10;1.10;;;23.10;99.90;;;;;;4996568;28;20050;-83
2022/07/03 10:57:40;;;;;;;4.93;1.25;;;23.20;99.90;;;;;;4997527;28;20054;-83
2022/07/03 11:00:26;;;;;;;3.38;0.80;;;23.10;99.90;;;;;;4983450;28;20057;-82
2022/07/03 11:03:27;;;;;;;5.55;1.23;;;23.00;99.90;;;;;;4996614;28;20509;-82
2022/07/03 11:06:13;;;;;;;7.43;1.60;;;23.00;99.90;;;;;;4996062;28;20041;-84
2022/07/03 11:09:05;;;;;;;4.63;1.33;;;23.10;99.90;;;;;;4995626;28;20073;-83
2022/07/03 11:11:55;;;;;;;4.63;1.20;;;23.30;99.90;;;;;;5015485;28;20056;-83
2022/07/03 11:14:41;;;;;;;3.38;0.80;;;23.50;99.90;;;;;;4999699;28;20136;-83
2022/07/03 11:17:27;;;;;;;6.10;1.30;;;23.60;99.90;;;;;;5016531;28;20148;-82
2022/07/03 11:20:25;;;;;;;4.95;0.90;;;23.60;99.90;;;;;;5015312;28;20053;-83
2022/07/03 11:23:33;;;;;;;5.03;1.33;;;23.90;99.20;;;;;;5015307;28;20061;-82
2022/07/03 11:26:21;;;;;;;3.92;0.90;;;24.00;99.10;;;;;;5013946;28;20049;-83
2022/07/03 11:29:25;;;;;;;6.35;1.27;;;24.10;99.00;;;;;;5013473;28;20054;-82
2022/07/03 11:32:43;;;;;;;6.70;1.20;;;24.80;98.70;;;;;;5013559;28;20055;-82
2022/07/03 11:35:48;;;;;;;4.53;0.80;;;25.30;98.30;;;;;;4997173;28;20153;-83
2022/07/03 11:38:36;;;;;;;4.63;1.33;;;25.60;96.70;;;;;;4995390;28;20081;-82
2022/07/03 11:41:24;;;;;;;5.45;0.80;;;26.00;96.60;;;;;;5012345;28;20133;-82
2022/07/03 11:44:18;;;;;;;8.45;0.93;;;26.30;96.00;;;;;;4995527;28;20053;-82
2022/07/03 11:47:04;;;;;;;5.15;0.90;;;26.60;96.00;;;;;;5013076;28;20057;-82
2022/07/03 11:49:50;;;;;;;3.78;1.10;;;26.50;94.80;;;;;;4983581;28;20421;-82
2022/07/03 11:52:37;;;;;;;4.55;0.90;;;26.60;95.00;;;;;;4998647;28;20104;-83
2022/07/03 11:55:24;;;;;;;4.38;1.10;;;26.10;95.30;;;;;;5014499;28;20408;-82
2022/07/03 11:58:10;;;;;;;5.30;1.25;;;25.80;95.90;;;;;;5014593;28;20046;-82
2022/07/03 12:00:57;;;;;;;6.18;1.23;;;25.20;96.00;;;;;;5012096;28;20054;-82
2022/07/03 12:03:43;;;;;;;4.43;1.23;;;24.90;96.60;;;;;;5014139;28;20417;-83
2022/07/03 12:06:41;;;;;;;4.18;1.00;;;24.80;97.30;;;;;;4982056;28;20057;-83
2022/07/03 12:09:34;;;;;;;3.85;0.85;;;25.40;96.90;;;;;;4982169;28;20049;-84
2022/07/03 12:12:24;;;;;;;4.60;0.93;;;25.10;96.60;;;;;;4981057;28;20057;-81
2022/07/03 12:15:10;;;;;;;3.42;1.05;;;25.40;97.40;;;;;;5012620;28;20078;-82
2022/07/03 12:17:56;;;;;;;4.68;1.35;;;25.70;97.50;;;;;;4996893;28;20084;-83
2022/07/03 12:20:43;;;;;;;3.08;1.13;;;26.20;96.80;;;;;;5013049;28;20144;-81
2022/07/03 12:23:29;;;;;;;2.97;0.80;;;27.10;96.20;;;;;;5012738;28;20513;-83
2022/07/03 12:26:30;;;;;;;4.18;0.80;;;27.70;94.80;;;;;;4997277;28;20056;-80
2022/07/03 12:29:20;;;;;;;2.63;0.70;;;27.90;93.90;;;;;;5013142;28;20069;-81
2022/07/03 12:32:10;;;;;;;4.28;1.05;;;27.80;94.20;;;;;;4994054;28;20050;-83
2022/07/03 12:34:56;;;;;;;4.25;1.10;;;27.30;94.50;;;;;;4995145;28;20045;-81
2022/07/03 12:37:45;;;;;;;5.15;0.93;;;27.50;94.30;;;;;;5014735;28;20544;-81
2022/07/03 12:40:31;;;;;;;2.55;0.80;;;27.20;94.20;;;;;;4999772;28;20064;-83
2022/07/03 12:43:17;;;;;;;3.08;0.80;;;27.30;93.80;;;;;;4981654;28;20050;-83
2022/07/03 12:46:21;;;;;;;2.90;0.80;;;27.90;93.80;;;;;;4980917;28;20052;-82
2022/07/03 12:49:11;;;;;;;4.05;1.35;;;28.00;94.00;;;;;;4993223;28;20173;-80
2022/07/03 12:51:57;;;;;;;2.05;0.80;;;28.50;93.10;;;;;;5010537;28;20465;-81
2022/07/03 12:54:44;;;;;;;2.15;0.80;;;28.10;93.30;;;;;;5011358;28;20064;-82
2022/07/03 13:00:43;;;;;;;3.10;0.73;;;27.50;93.70;;;;;;5012993;28;20073;-81
2022/07/03 13:03:40;;;;;;;4.82;0.90;;;27.80;93.70;;;;;;5010330;28;20506;-81
2022/07/03 13:06:26;;;;;;;4.10;0.80;;;27.90;93.70;;;;;;5011172;28;20050;-81
2022/07/03 13:09:12;;;;;;;3.75;0.60;;;28.30;92.90;;;;;;4996502;28;20064;-80
2022/07/03 13:11:58;;;;;;;6.07;1.13;;;28.90;92.20;;;;;;4994479;28;20049;-80
2022/07/03 13:14:58;;;;;;;3.63;1.10;;;29.00;91.70;;;;;;5012228;28;20057;-80
2022/07/03 13:17:53;;;;;;;3.05;0.93;;;28.80;91.40;;;;;;5011390;28;20196;-80
2022/07/03 13:20:39;;;;;;;2.85;0.90;;;29.10;91.10;;;;;;4994507;28;20050;-81
2022/07/03 13:23:25;;;;;;;2.15;0.68;;;29.20;91.00;;;;;;5012511;28;20104;-81
2022/07/03 13:26:11;;;;;;;5.03;0.60;;;29.10;90.60;;;;;;4997661;28;20050;-80
2022/07/03 13:28:58;;;;;;;2.47;1.00;;;29.30;90.60;;;;;;4997542;28;20461;-81
2022/07/03 13:31:44;;;;;;;4.25;0.73;;;29.00;90.60;;;;;;5012212;28;20058;-81
2022/07/03 13:34:30;;;;;;;2.33;0.60;;;28.30;91.10;;;;;;4996934;28;20049;-81
2022/07/03 13:37:16;;;;;;;3.88;0.80;;;27.60;91.80;;;;;;4993642;28;20053;-81
2022/07/03 13:40:04;;;;;;;3.60;1.00;;;26.70;92.90;;;;;;4994053;28;20053;-81
2022/07/03 13:42:50;;;;;;;3.80;1.13;;;26.30;93.70;;;;;;5011699;28;20057;-81
2022/07/03 13:45:37;;;;;;;2.67;0.65;;;25.90;94.40;;;;;;5011201;28;20057;-81
2022/07/03 13:48:23;;;;;;;3.08;0.82;;;25.60;94.70;;;;;;5012710;28;20050;-81
2022/07/03 13:51:09;;;;;;;3.17;0.60;;;25.60;95.20;;;;;;5012423;28;20050;-80
2022/07/03 13:53:55;;;;;;;3.58;0.68;;;24.90;95.00;;;;;;5012815;28;20100;-81
2022/07/03 13:56:42;;;;;;;4.43;0.70;;;24.70;95.50;;;;;;4998381;28;20064;-81
2022/07/03 13:59:30;;;;;;;5.55;1.08;;;24.40;96.40;;;;;;5015375;28;20073;-81
2022/07/03 14:02:16;;;;;;;5.07;0.98;;;24.00;97.00;;;;;;4983824;28;20050;-82
2022/07/03 14:05:03;;;;;;;4.35;0.70;;;23.90;97.30;;;;;;5015848;28;20125;-81
2022/07/03 14:07:49;;;;;;;4.80;0.88;;;23.70;96.90;;;;;;4983561;28;20050;-82
2022/07/03 14:10:35;;;;;;;3.10;0.80;;;23.30;96.60;;;;;;5015167;28;20057;-81
2022/07/03 14:13:22;;;;;;;3.58;0.73;;;23.20;96.70;;;;;;5014942;28;20048;-81
2022/07/03 14:16:08;;;;;;;5.05;1.30;;;23.20;97.00;;;;;;4998543;28;20057;-81
2022/07/03 14:18:54;;;;;;;4.07;0.73;;;23.00;97.60;;;;;;5018141;28;20050;-82
2022/07/03 14:21:40;;;;;;;2.33;0.70;;;22.80;99.10;;;;;;5017477;28;20085;-81
2022/07/03 14:24:26;;;;;;;2.95;0.95;;;22.80;99.50;;;;;;4996855;28;20498;-81
2022/07/03 14:33:21;;;;;;;2.85;0.88;;;22.10;99.90;;;;;;4997601;28;20050;-81
2022/07/03 14:36:08;;;;;;;5.80;0.88;;;21.90;99.90;;;;;;5014277;28;20057;-82
2022/07/03 14:38:54;;;;;;;5.32;0.95;;;22.00;99.90;;;;;;5014000;28;20461;-82
2022/07/03 14:41:41;;;;;;;1.77;0.40;;;21.90;99.90;;;;;;4997645;28;20049;-82
2022/07/03 14:44:27;;;;;;;4.53;0.70;;;21.90;99.90;;;;;;5014398;28;20192;-82
2022/07/03 14:47:14;;;;;;;4.93;1.17;;;21.80;99.90;;;;;;5012624;28;20058;-83
2022/07/03 14:50:01;;;;;;;3.63;0.80;;;21.80;99.90;;;;;;4996720;28;20046;-83
2022/07/03 14:52:47;;;;;;;5.18;0.85;;;21.80;99.90;;;;;;5015274;28;20057;-82
2022/07/03 14:55:38;;;;;;;3.97;1.20;;;21.80;99.90;;;;;;5016570;28;20106;-82
2022/07/03 14:58:29;;;;;;;4.20;0.98;;;21.60;99.90;;;;;;5015416;28;20050;-82
2022/07/03 15:01:20;;;;;;;3.95;1.00;;;21.70;99.90;;;;;;5012258;28;20057;-81
2022/07/03 15:04:24;;;;;;;7.32;1.50;;;21.70;99.90;;;;;;4999598;28;20081;-81
2022/07/03 15:07:13;;;;;;;9.38;1.17;;;21.80;99.90;;;;;;4997209;28;20092;-81
2022/07/03 15:10:05;;;;;;;3.58;0.77;;;21.50;99.90;;;;;;5013904;28;20049;-83